sensor_id;sensor_type;location;lat;lon;timestamp;pressure;altitude;pressure_sealevel;temperature;humidity
74552;BME280;63025;55.472;38.432;2024-01-27T00:01:51;100153.81;;;-4.89;100.00
74552;BME280;63025;55.472;38.432;2024-01-27T00:04:17;100157.69;;;-4.95;100.00
74552;BME280;63025;55.472;38.432;2024-01-27T00:06:43;100153.75;;;-5.00;100.00
74552;BME280;63025;55.472;38.432;2024-01-27T00:09:09;100153.31;;;-5.07;100.00
74552;BME280;63025;55.472;38.432;2024-01-27T00:11:35;100156.88;;;-5.08;100.00
74552;BME280;63025;55.472;38.432;2024-01-27T00:14:01;100148.63;;;-5.14;100.00
74552;BME280;63025;55.472;38.432;2024-01-27T00:16:27;100155.63;;;-5.15;100.00
74552;BME280;63025;55.472;38.432;2024-01-27T00:18:53;100158.16;;;-5.13;100.00
74552;BME280;63025;55.472;38.432;2024-01-27T00:21:19;100163.78;;;-5.07;100.00
74552;BME280;63025;55.472;38.432;2024-01-27T00:23:44;100160.88;;;-5.02;100.00
74552;BME280;63025;55.472;38.432;2024-01-27T00:26:10;100166.84;;;-5.00;100.00
74552;BME280;63025;55.472;38.432;2024-01-27T00:28:37;100169.84;;;-4.94;100.00
74552;BME280;63025;55.472;38.432;2024-01-27T00:31:03;100171.31;;;-4.90;100.00
74552;BME280;63025;55.472;38.432;2024-01-27T00:33:30;100164.81;;;-4.84;100.00
74552;BME280;63025;55.472;38.432;2024-01-27T00:35:56;100166.28;;;-4.80;100.00
74552;BME280;63025;55.472;38.432;2024-01-27T00:38:22;100159.13;;;-4.78;100.00
74552;BME280;63025;55.472;38.432;2024-01-27T00:40:48;100165.81;;;-4.74;100.00
74552;BME280;63025;55.472;38.432;2024-01-27T00:43:14;100170.84;;;-4.71;100.00
74552;BME280;63025;55.472;38.432;2024-01-27T00:45:40;100166.09;;;-4.66;100.00
74552;BME280;63025;55.472;38.432;2024-01-27T00:48:06;100169.47;;;-4.64;100.00
74552;BME280;63025;55.472;38.432;2024-01-27T00:50:32;100166.53;;;-4.59;100.00
74552;BME280;63025;55.472;38.432;2024-01-27T00:52:58;100173.31;;;-4.57;100.00
74552;BME280;63025;55.472;38.432;2024-01-27T00:55:24;100173.09;;;-4.54;100.00
74552;BME280;63025;55.472;38.432;2024-01-27T00:57:49;100169.31;;;-4.50;100.00
74552;BME280;63025;55.472;38.432;2024-01-27T01:00:15;100173.63;;;-4.49;100.00
74552;BME280;63025;55.472;38.432;2024-01-27T01:02:41;100170.75;;;-4.46;100.00
74552;BME280;63025;55.472;38.432;2024-01-27T01:05:08;100172.44;;;-4.45;100.00
74552;BME280;63025;55.472;38.432;2024-01-27T01:07:33;100175.78;;;-4.43;100.00
74552;BME280;63025;55.472;38.432;2024-01-27T01:09:59;100180.09;;;-4.41;100.00
74552;BME280;63025;55.472;38.432;2024-01-27T01:12:25;100176.31;;;-4.37;100.00
74552;BME280;63025;55.472;38.432;2024-01-27T01:14:52;100171.75;;;-4.35;100.00
74552;BME280;63025;55.472;38.432;2024-01-27T01:17:18;100171.06;;;-4.37;100.00
74552;BME280;63025;55.472;38.432;2024-01-27T01:19:43;100171.91;;;-4.37;100.00
74552;BME280;63025;55.472;38.432;2024-01-27T01:22:09;100177.00;;;-4.35;100.00
74552;BME280;63025;55.472;38.432;2024-01-27T01:24:35;100175.94;;;-4.33;100.00
74552;BME280;63025;55.472;38.432;2024-01-27T01:27:01;100181.81;;;-4.29;100.00
74552;BME280;63025;55.472;38.432;2024-01-27T01:29:27;100179.09;;;-4.28;100.00
74552;BME280;63025;55.472;38.432;2024-01-27T01:31:53;100181.81;;;-4.29;100.00
74552;BME280;63025;55.472;38.432;2024-01-27T01:34:19;100174.06;;;-4.31;100.00
74552;BME280;63025;55.472;38.432;2024-01-27T01:36:45;100186.22;;;-4.30;100.00
74552;BME280;63025;55.472;38.432;2024-01-27T01:39:11;100177.41;;;-4.29;100.00
74552;BME280;63025;55.472;38.432;2024-01-27T01:41:40;100177.06;;;-4.24;100.00
74552;BME280;63025;55.472;38.432;2024-01-27T01:44:07;100170.88;;;-4.23;100.00
74552;BME280;63025;55.472;38.432;2024-01-27T01:46:34;100173.28;;;-4.20;100.00
74552;BME280;63025;55.472;38.432;2024-01-27T01:49:00;100176.13;;;-4.23;100.00
74552;BME280;63025;55.472;38.432;2024-01-27T01:51:27;100180.53;;;-4.24;100.00
74552;BME280;63025;55.472;38.432;2024-01-27T01:53:57;100171.81;;;-4.24;100.00
74552;BME280;63025;55.472;38.432;2024-01-27T01:56:24;100177.91;;;-4.24;100.00
74552;BME280;63025;55.472;38.432;2024-01-27T01:58:50;100172.75;;;-4.25;100.00
74552;BME280;63025;55.472;38.432;2024-01-27T02:01:19;100181.38;;;-4.23;100.00
74552;BME280;63025;55.472;38.432;2024-01-27T02:06:19;100183.25;;;-4.25;100.00
74552;BME280;63025;55.472;38.432;2024-01-27T02:08:45;100178.97;;;-4.26;100.00
74552;BME280;63025;55.472;38.432;2024-01-27T02:11:11;100195.44;;;-4.24;100.00
74552;BME280;63025;55.472;38.432;2024-01-27T02:13:37;100188.50;;;-4.25;100.00
74552;BME280;63025;55.472;38.432;2024-01-27T02:16:04;100185.78;;;-4.24;100.00
74552;BME280;63025;55.472;38.432;2024-01-27T02:18:49;100177.06;;;-4.24;100.00
74552;BME280;63025;55.472;38.432;2024-01-27T02:21:15;100187.56;;;-4.24;100.00
74552;BME280;63025;55.472;38.432;2024-01-27T02:23:41;100184.94;;;-4.24;100.00
74552;BME280;63025;55.472;38.432;2024-01-27T02:26:07;100188.28;;;-4.22;100.00
74552;BME280;63025;55.472;38.432;2024-01-27T02:28:33;100184.81;;;-4.23;100.00
74552;BME280;63025;55.472;38.432;2024-01-27T02:31:01;100197.84;;;-4.21;100.00
74552;BME280;63025;55.472;38.432;2024-01-27T02:33:27;100196.06;;;-4.21;100.00
74552;BME280;63025;55.472;38.432;2024-01-27T02:35:52;100192.69;;;-4.23;100.00
74552;BME280;63025;55.472;38.432;2024-01-27T02:38:18;100190.91;;;-4.22;100.00
74552;BME280;63025;55.472;38.432;2024-01-27T02:40:44;100186.59;;;-4.23;100.00
74552;BME280;63025;55.472;38.432;2024-01-27T02:43:10;100188.63;;;-4.27;100.00
74552;BME280;63025;55.472;38.432;2024-01-27T02:45:36;100191.47;;;-4.30;100.00
74552;BME280;63025;55.472;38.432;2024-01-27T02:48:02;100193.47;;;-4.33;100.00
74552;BME280;63025;55.472;38.432;2024-01-27T02:50:28;100192.97;;;-4.38;100.00
74552;BME280;63025;55.472;38.432;2024-01-27T02:52:54;100201.28;;;-4.45;100.00
74552;BME280;63025;55.472;38.432;2024-01-27T02:55:20;100197.31;;;-4.50;100.00
74552;BME280;63025;55.472;38.432;2024-01-27T02:57:46;100205.81;;;-4.47;100.00
74552;BME280;63025;55.472;38.432;2024-01-27T03:00:12;100205.38;;;-4.40;100.00
74552;BME280;63025;55.472;38.432;2024-01-27T03:02:38;100200.84;;;-4.38;100.00
74552;BME280;63025;55.472;38.432;2024-01-27T03:05:04;100208.72;;;-4.38;100.00
74552;BME280;63025;55.472;38.432;2024-01-27T03:07:31;100207.63;;;-4.36;100.00
74552;BME280;63025;55.472;38.432;2024-01-27T03:09:57;100214.69;;;-4.36;100.00
74552;BME280;63025;55.472;38.432;2024-01-27T03:12:23;100216.47;;;-4.37;100.00
74552;BME280;63025;55.472;38.432;2024-01-27T03:14:49;100219.22;;;-4.38;100.00
74552;BME280;63025;55.472;38.432;2024-01-27T03:17:16;100217.75;;;-4.43;100.00
74552;BME280;63025;55.472;38.432;2024-01-27T03:19:42;100224.66;;;-4.41;100.00
74552;BME280;63025;55.472;38.432;2024-01-27T03:22:08;100220.88;;;-4.37;100.00
74552;BME280;63025;55.472;38.432;2024-01-27T03:24:34;100228.53;;;-4.34;100.00
74552;BME280;63025;55.472;38.432;2024-01-27T03:27:00;100227.81;;;-4.36;100.00
74552;BME280;63025;55.472;38.432;2024-01-27T03:29:26;100237.84;;;-4.30;100.00
74552;BME280;63025;55.472;38.432;2024-01-27T03:31:53;100239.53;;;-4.29;100.00
74552;BME280;63025;55.472;38.432;2024-01-27T03:34:20;100227.03;;;-4.26;100.00
74552;BME280;63025;55.472;38.432;2024-01-27T03:36:50;100241.59;;;-4.22;100.00
74552;BME280;63025;55.472;38.432;2024-01-27T03:39:16;100241.50;;;-4.20;100.00
74552;BME280;63025;55.472;38.432;2024-01-27T03:41:42;100242.13;;;-4.17;100.00
74552;BME280;63025;55.472;38.432;2024-01-27T03:44:08;100246.63;;;-4.19;100.00
74552;BME280;63025;55.472;38.432;2024-01-27T03:46:34;100259.28;;;-4.13;100.00
74552;BME280;63025;55.472;38.432;2024-01-27T03:49:00;100258.97;;;-4.08;100.00
74552;BME280;63025;55.472;38.432;2024-01-27T03:51:28;100265.91;;;-4.07;100.00
74552;BME280;63025;55.472;38.432;2024-01-27T03:53:54;100270.91;;;-4.04;100.00
74552;BME280;63025;55.472;38.432;2024-01-27T03:56:20;100266.63;;;-4.05;100.00
74552;BME280;63025;55.472;38.432;2024-01-27T03:58:46;100272.59;;;-4.03;100.00
74552;BME280;63025;55.472;38.432;2024-01-27T04:01:12;100268.19;;;-4.02;100.00
74552;BME280;63025;55.472;38.432;2024-01-27T04:03:38;100274.50;;;-4.05;100.00
74552;BME280;63025;55.472;38.432;2024-01-27T04:06:04;100267.34;;;-4.03;100.00
74552;BME280;63025;55.472;38.432;2024-01-27T04:08:30;100270.59;;;-3.99;100.00
74552;BME280;63025;55.472;38.432;2024-01-27T04:10:56;100262.94;;;-4.02;100.00
74552;BME280;63025;55.472;38.432;2024-01-27T04:13:22;100267.13;;;-4.00;100.00
74552;BME280;63025;55.472;38.432;2024-01-27T04:15:48;100274.06;;;-3.99;100.00
74552;BME280;63025;55.472;38.432;2024-01-27T04:18:14;100262.72;;;-3.99;100.00
74552;BME280;63025;55.472;38.432;2024-01-27T04:20:39;100269.66;;;-3.98;100.00
74552;BME280;63025;55.472;38.432;2024-01-27T04:23:05;100272.16;;;-3.97;100.00
74552;BME280;63025;55.472;38.432;2024-01-27T04:25:31;100273.59;;;-3.93;100.00
74552;BME280;63025;55.472;38.432;2024-01-27T04:27:57;100285.03;;;-3.94;100.00
74552;BME280;63025;55.472;38.432;2024-01-27T04:30:23;100282.41;;;-3.94;100.00
74552;BME280;63025;55.472;38.432;2024-01-27T04:32:48;100283.41;;;-3.95;100.00
74552;BME280;63025;55.472;38.432;2024-01-27T04:35:16;100287.91;;;-3.97;100.00
74552;BME280;63025;55.472;38.432;2024-01-27T04:37:42;100291.47;;;-3.98;100.00
74552;BME280;63025;55.472;38.432;2024-01-27T04:40:11;100287.91;;;-3.97;100.00
74552;BME280;63025;55.472;38.432;2024-01-27T04:42:38;100304.41;;;-3.95;100.00
74552;BME280;63025;55.472;38.432;2024-01-27T04:45:06;100299.47;;;-3.99;100.00
74552;BME280;63025;55.472;38.432;2024-01-27T04:47:32;100310.59;;;-3.96;100.00
74552;BME280;63025;55.472;38.432;2024-01-27T04:49:58;100305.44;;;-3.97;100.00
74552;BME280;63025;55.472;38.432;2024-01-27T04:52:24;100303.03;;;-4.00;100.00
74552;BME280;63025;55.472;38.432;2024-01-27T04:54:52;100319.72;;;-4.01;100.00
74552;BME280;63025;55.472;38.432;2024-01-27T04:57:18;100317.22;;;-4.03;100.00
74552;BME280;63025;55.472;38.432;2024-01-27T04:59:44;100308.63;;;-4.05;100.00
74552;BME280;63025;55.472;38.432;2024-01-27T05:02:11;100311.13;;;-4.03;100.00
74552;BME280;63025;55.472;38.432;2024-01-27T05:04:37;100317.44;;;-4.06;100.00
74552;BME280;63025;55.472;38.432;2024-01-27T05:07:03;100312.19;;;-4.06;100.00
74552;BME280;63025;55.472;38.432;2024-01-27T05:09:29;100320.78;;;-4.04;100.00
74552;BME280;63025;55.472;38.432;2024-01-27T05:11:55;100321.31;;;-3.99;100.00
74552;BME280;63025;55.472;38.432;2024-01-27T05:14:21;100325.59;;;-3.98;100.00
74552;BME280;63025;55.472;38.432;2024-01-27T05:16:47;100324.41;;;-3.94;100.00
74552;BME280;63025;55.472;38.432;2024-01-27T05:19:12;100336.59;;;-3.93;100.00
74552;BME280;63025;55.472;38.432;2024-01-27T05:21:38;100334.91;;;-3.94;100.00
74552;BME280;63025;55.472;38.432;2024-01-27T05:24:04;100345.19;;;-3.91;100.00
74552;BME280;63025;55.472;38.432;2024-01-27T05:26:30;100343.31;;;-3.89;100.00
74552;BME280;63025;55.472;38.432;2024-01-27T05:28:56;100351.94;;;-3.87;100.00
74552;BME280;63025;55.472;38.432;2024-01-27T05:31:22;100359.81;;;-3.87;100.00
74552;BME280;63025;55.472;38.432;2024-01-27T05:33:48;100353.72;;;-3.87;100.00
74552;BME280;63025;55.472;38.432;2024-01-27T05:36:14;100358.50;;;-3.81;100.00
74552;BME280;63025;55.472;38.432;2024-01-27T05:38:40;100361.53;;;-3.75;100.00
74552;BME280;63025;55.472;38.432;2024-01-27T05:41:06;100357.41;;;-3.66;100.00
74552;BME280;63025;55.472;38.432;2024-01-27T05:43:32;100356.22;;;-3.62;100.00
74552;BME280;63025;55.472;38.432;2024-01-27T05:45:58;100361.03;;;-3.56;100.00
74552;BME280;63025;55.472;38.432;2024-01-27T05:48:23;100356.38;;;-3.52;100.00
74552;BME280;63025;55.472;38.432;2024-01-27T05:51:00;100364.69;;;-3.46;100.00
74552;BME280;63025;55.472;38.432;2024-01-27T05:53:26;100363.38;;;-3.40;100.00
74552;BME280;63025;55.472;38.432;2024-01-27T05:55:53;100357.06;;;-3.38;100.00
74552;BME280;63025;55.472;38.432;2024-01-27T05:58:25;100370.19;;;-3.38;100.00
74552;BME280;63025;55.472;38.432;2024-01-27T06:00:51;100366.00;;;-3.40;100.00
74552;BME280;63025;55.472;38.432;2024-01-27T06:03:17;100364.09;;;-3.38;100.00
74552;BME280;63025;55.472;38.432;2024-01-27T06:05:43;100373.19;;;-3.31;100.00
74552;BME280;63025;55.472;38.432;2024-01-27T06:08:09;100368.78;;;-3.30;100.00
74552;BME280;63025;55.472;38.432;2024-01-27T06:10:35;100366.69;;;-3.25;100.00
74552;BME280;63025;55.472;38.432;2024-01-27T06:13:04;100366.31;;;-3.21;100.00
74552;BME280;63025;55.472;38.432;2024-01-27T06:15:31;100370.41;;;-3.17;100.00
74552;BME280;63025;55.472;38.432;2024-01-27T06:17:57;100374.72;;;-3.16;100.00
74552;BME280;63025;55.472;38.432;2024-01-27T06:20:24;100368.41;;;-3.13;100.00
74552;BME280;63025;55.472;38.432;2024-01-27T06:22:50;100367.31;;;-3.11;100.00
74552;BME280;63025;55.472;38.432;2024-01-27T06:25:19;100365.19;;;-3.06;100.00
74552;BME280;63025;55.472;38.432;2024-01-27T06:27:45;100374.41;;;-3.00;100.00
74552;BME280;63025;55.472;38.432;2024-01-27T06:30:12;100368.28;;;-3.01;100.00
74552;BME280;63025;55.472;38.432;2024-01-27T06:32:39;100372.59;;;-3.00;100.00
74552;BME280;63025;55.472;38.432;2024-01-27T06:35:05;100372.38;;;-2.97;100.00
74552;BME280;63025;55.472;38.432;2024-01-27T06:37:31;100360.69;;;-2.92;100.00
74552;BME280;63025;55.472;38.432;2024-01-27T06:39:57;100378.41;;;-2.83;100.00
74552;BME280;63025;55.472;38.432;2024-01-27T06:42:23;100378.88;;;-2.78;100.00
74552;BME280;63025;55.472;38.432;2024-01-27T06:44:49;100382.22;;;-2.76;100.00
74552;BME280;63025;55.472;38.432;2024-01-27T06:47:15;100388.94;;;-2.72;100.00
74552;BME280;63025;55.472;38.432;2024-01-27T06:49:41;100398.16;;;-2.67;100.00
74552;BME280;63025;55.472;38.432;2024-01-27T06:52:07;100397.72;;;-2.61;100.00
74552;BME280;63025;55.472;38.432;2024-01-27T06:54:33;100390.28;;;-2.55;100.00
74552;BME280;63025;55.472;38.432;2024-01-27T06:56:59;100406.69;;;-2.52;100.00
74552;BME280;63025;55.472;38.432;2024-01-27T06:59:26;100403.09;;;-2.51;100.00
74552;BME280;63025;55.472;38.432;2024-01-27T07:01:52;100407.16;;;-2.47;100.00
74552;BME280;63025;55.472;38.432;2024-01-27T07:04:18;100404.31;;;-2.44;100.00
74552;BME280;63025;55.472;38.432;2024-01-27T07:06:44;100408.59;;;-2.43;100.00
74552;BME280;63025;55.472;38.432;2024-01-27T07:09:10;100416.50;;;-2.43;100.00
74552;BME280;63025;55.472;38.432;2024-01-27T07:11:36;100421.75;;;-2.43;100.00
74552;BME280;63025;55.472;38.432;2024-01-27T07:14:03;100416.84;;;-2.36;100.00
74552;BME280;63025;55.472;38.432;2024-01-27T07:16:29;100422.72;;;-2.33;100.00
74552;BME280;63025;55.472;38.432;2024-01-27T07:18:55;100428.00;;;-2.33;100.00
74552;BME280;63025;55.472;38.432;2024-01-27T07:21:21;100424.31;;;-2.30;100.00
74552;BME280;63025;55.472;38.432;2024-01-27T07:23:47;100426.69;;;-2.27;100.00
74552;BME280;63025;55.472;38.432;2024-01-27T07:26:13;100425.13;;;-2.30;100.00
74552;BME280;63025;55.472;38.432;2024-01-27T07:28:39;100436.97;;;-2.35;100.00
74552;BME280;63025;55.472;38.432;2024-01-27T07:31:05;100441.16;;;-2.33;100.00
74552;BME280;63025;55.472;38.432;2024-01-27T07:33:31;100432.09;;;-2.29;100.00
74552;BME280;63025;55.472;38.432;2024-01-27T07:35:57;100442.84;;;-2.32;100.00
74552;BME280;63025;55.472;38.432;2024-01-27T07:38:23;100440.66;;;-2.38;100.00
74552;BME280;63025;55.472;38.432;2024-01-27T07:40:49;100439.69;;;-2.37;100.00
74552;BME280;63025;55.472;38.432;2024-01-27T07:43:14;100443.69;;;-2.31;100.00
74552;BME280;63025;55.472;38.432;2024-01-27T07:45:40;100449.78;;;-2.31;100.00
74552;BME280;63025;55.472;38.432;2024-01-27T07:48:06;100451.19;;;-2.27;100.00
74552;BME280;63025;55.472;38.432;2024-01-27T07:50:33;100463.19;;;-2.23;100.00
74552;BME280;63025;55.472;38.432;2024-01-27T07:53:00;100455.41;;;-2.13;100.00
74552;BME280;63025;55.472;38.432;2024-01-27T07:55:27;100458.06;;;-2.02;100.00
74552;BME280;63025;55.472;38.432;2024-01-27T07:57:52;100463.69;;;-1.95;100.00
74552;BME280;63025;55.472;38.432;2024-01-27T08:00:18;100456.28;;;-1.90;100.00
74552;BME280;63025;55.472;38.432;2024-01-27T08:02:44;100467.16;;;-1.95;100.00
74552;BME280;63025;55.472;38.432;2024-01-27T08:05:10;100463.44;;;-1.92;100.00
74552;BME280;63025;55.472;38.432;2024-01-27T08:07:36;100469.91;;;-1.85;100.00
74552;BME280;63025;55.472;38.432;2024-01-27T08:10:02;100469.91;;;-1.85;100.00
74552;BME280;63025;55.472;38.432;2024-01-27T08:12:30;100473.75;;;-1.78;100.00
74552;BME280;63025;55.472;38.432;2024-01-27T08:14:56;100472.53;;;-1.74;100.00
74552;BME280;63025;55.472;38.432;2024-01-27T08:17:22;100472.31;;;-1.71;100.00
74552;BME280;63025;55.472;38.432;2024-01-27T08:19:48;100465.13;;;-1.69;100.00
74552;BME280;63025;55.472;38.432;2024-01-27T08:22:14;100479.13;;;-1.68;100.00
74552;BME280;63025;55.472;38.432;2024-01-27T08:24:40;100478.31;;;-1.69;100.00
74552;BME280;63025;55.472;38.432;2024-01-27T08:27:06;100474.34;;;-1.63;100.00
74552;BME280;63025;55.472;38.432;2024-01-27T08:29:31;100478.19;;;-1.56;100.00
74552;BME280;63025;55.472;38.432;2024-01-27T08:31:58;100476.13;;;-1.53;100.00
74552;BME280;63025;55.472;38.432;2024-01-27T08:34:24;100472.28;;;-1.49;100.00
74552;BME280;63025;55.472;38.432;2024-01-27T08:36:50;100475.16;;;-1.40;100.00
74552;BME280;63025;55.472;38.432;2024-01-27T08:39:16;100473.56;;;-1.32;100.00
74552;BME280;63025;55.472;38.432;2024-01-27T08:41:41;100478.28;;;-1.35;100.00
74552;BME280;63025;55.472;38.432;2024-01-27T08:44:07;100480.75;;;-1.34;100.00
74552;BME280;63025;55.472;38.432;2024-01-27T08:46:33;100490.63;;;-1.36;100.00
74552;BME280;63025;55.472;38.432;2024-01-27T08:48:59;100492.25;;;-1.35;100.00
74552;BME280;63025;55.472;38.432;2024-01-27T08:51:25;100487.13;;;-1.36;100.00
74552;BME280;63025;55.472;38.432;2024-01-27T08:53:51;100499.81;;;-1.30;100.00
74552;BME280;63025;55.472;38.432;2024-01-27T08:56:17;100504.72;;;-1.26;100.00
74552;BME280;63025;55.472;38.432;2024-01-27T08:58:43;100500.88;;;-1.22;100.00
74552;BME280;63025;55.472;38.432;2024-01-27T09:01:10;100492.50;;;-1.27;100.00
74552;BME280;63025;55.472;38.432;2024-01-27T09:03:39;100492.13;;;-1.22;100.00
74552;BME280;63025;55.472;38.432;2024-01-27T09:06:06;100495.81;;;-1.14;100.00
74552;BME280;63025;55.472;38.432;2024-01-27T09:08:34;100495.94;;;-1.04;100.00
74552;BME280;63025;55.472;38.432;2024-01-27T09:11:02;100500.31;;;-0.93;100.00
74552;BME280;63025;55.472;38.432;2024-01-27T09:13:28;100504.03;;;-0.85;100.00
74552;BME280;63025;55.472;38.432;2024-01-27T09:15:56;100506.16;;;-0.79;100.00
74552;BME280;63025;55.472;38.432;2024-01-27T09:18:22;100509.13;;;-0.72;100.00
74552;BME280;63025;55.472;38.432;2024-01-27T09:20:48;100499.03;;;-0.67;100.00
74552;BME280;63025;55.472;38.432;2024-01-27T09:23:14;100505.47;;;-0.60;100.00
74552;BME280;63025;55.472;38.432;2024-01-27T09:25:40;100499.47;;;-0.62;100.00
74552;BME280;63025;55.472;38.432;2024-01-27T09:28:06;100504.63;;;-0.60;100.00
74552;BME280;63025;55.472;38.432;2024-01-27T09:30:32;100505.34;;;-0.58;100.00
74552;BME280;63025;55.472;38.432;2024-01-27T09:32:58;100504.59;;;-0.49;100.00
74552;BME280;63025;55.472;38.432;2024-01-27T09:35:23;100508.53;;;-0.44;100.00
74552;BME280;63025;55.472;38.432;2024-01-27T09:37:50;100514.13;;;-0.37;100.00
74552;BME280;63025;55.472;38.432;2024-01-27T09:40:16;100511.97;;;-0.32;100.00
74552;BME280;63025;55.472;38.432;2024-01-27T09:42:51;100510.41;;;-0.34;100.00
74552;BME280;63025;55.472;38.432;2024-01-27T09:45:20;100508.47;;;-0.53;100.00
74552;BME280;63025;55.472;38.432;2024-01-27T09:47:47;100513.97;;;-0.56;100.00
74552;BME280;63025;55.472;38.432;2024-01-27T09:50:14;100512.56;;;-0.60;100.00
74552;BME280;63025;55.472;38.432;2024-01-27T09:52:40;100517.25;;;-0.64;100.00
74552;BME280;63025;55.472;38.432;2024-01-27T09:55:06;100523.31;;;-0.73;100.00
74552;BME280;63025;55.472;38.432;2024-01-27T09:57:32;100529.66;;;-0.76;100.00
74552;BME280;63025;55.472;38.432;2024-01-27T09:59:59;100526.06;;;-0.75;100.00
74552;BME280;63025;55.472;38.432;2024-01-27T10:02:26;100531.78;;;-0.69;100.00
74552;BME280;63025;55.472;38.432;2024-01-27T10:04:53;100527.97;;;-0.77;100.00
74552;BME280;63025;55.472;38.432;2024-01-27T10:07:20;100537.38;;;-0.84;100.00
74552;BME280;63025;55.472;38.432;2024-01-27T10:09:51;100533.13;;;-0.75;100.00
74552;BME280;63025;55.472;38.432;2024-01-27T10:12:17;100536.09;;;-0.68;100.00
74552;BME280;63025;55.472;38.432;2024-01-27T10:14:47;100534.50;;;-0.60;100.00
74552;BME280;63025;55.472;38.432;2024-01-27T10:17:24;100540.97;;;-0.53;100.00
74552;BME280;63025;55.472;38.432;2024-01-27T10:20:04;100534.09;;;-0.44;100.00
74552;BME280;63025;55.472;38.432;2024-01-27T10:22:40;100536.00;;;-0.46;100.00
74552;BME280;63025;55.472;38.432;2024-01-27T10:25:07;100545.38;;;-0.42;100.00
74552;BME280;63025;55.472;38.432;2024-01-27T10:27:34;100538.13;;;-0.40;100.00
74552;BME280;63025;55.472;38.432;2024-01-27T10:30:00;100548.97;;;-0.43;100.00
74552;BME280;63025;55.472;38.432;2024-01-27T10:32:26;100540.94;;;-0.42;100.00
74552;BME280;63025;55.472;38.432;2024-01-27T10:37:29;100543.13;;;-0.26;100.00
74552;BME280;63025;55.472;38.432;2024-01-27T10:40:00;100551.25;;;-0.18;100.00
74552;BME280;63025;55.472;38.432;2024-01-27T10:42:29;100551.81;;;-0.14;100.00
74552;BME280;63025;55.472;38.432;2024-01-27T10:44:59;100551.25;;;-0.18;100.00
74552;BME280;63025;55.472;38.432;2024-01-27T10:47:32;100550.53;;;-0.20;100.00
74552;BME280;63025;55.472;38.432;2024-01-27T10:50:00;100556.41;;;-0.16;100.00
74552;BME280;63025;55.472;38.432;2024-01-27T10:52:32;100554.06;;;-0.10;100.00
74552;BME280;63025;55.472;38.432;2024-01-27T10:55:03;100570.75;;;-0.09;100.00
74552;BME280;63025;55.472;38.432;2024-01-27T10:57:33;100569.06;;;-0.10;100.00
74552;BME280;63025;55.472;38.432;2024-01-27T11:00:04;100576.50;;;-0.04;100.00
74552;BME280;63025;55.472;38.432;2024-01-27T11:02:34;100564.38;;;-0.07;100.00
74552;BME280;63025;55.472;38.432;2024-01-27T11:05:04;100574.13;;;-0.07;100.00
74552;BME280;63025;55.472;38.432;2024-01-27T11:07:34;100581.91;;;-0.06;100.00
74552;BME280;63025;55.472;38.432;2024-01-27T11:10:01;100591.88;;;-0.09;100.00
74552;BME280;63025;55.472;38.432;2024-01-27T11:12:30;100591.22;;;-0.11;100.00
74552;BME280;63025;55.472;38.432;2024-01-27T11:14:57;100591.31;;;-0.13;100.00
74552;BME280;63025;55.472;38.432;2024-01-27T11:17:24;100586.59;;;-0.09;100.00
74552;BME280;63025;55.472;38.432;2024-01-27T11:19:50;100590.81;;;-0.07;100.00
74552;BME280;63025;55.472;38.432;2024-01-27T11:22:27;100598.97;;;-0.10;100.00
74552;BME280;63025;55.472;38.432;2024-01-27T11:27:42;100601.50;;;-0.08;100.00
74552;BME280;63025;55.472;38.432;2024-01-27T11:30:28;100606.66;;;-0.07;100.00
74552;BME280;63025;55.472;38.432;2024-01-27T11:32:56;100603.75;;;-0.04;100.00
74552;BME280;63025;55.472;38.432;2024-01-27T11:35:26;100603.88;;;-0.05;100.00
74552;BME280;63025;55.472;38.432;2024-01-27T11:37:52;100601.63;;;-0.10;100.00
74552;BME280;63025;55.472;38.432;2024-01-27T11:40:18;100614.06;;;-0.21;100.00
74552;BME280;63025;55.472;38.432;2024-01-27T11:42:54;100617.06;;;-0.26;100.00
74552;BME280;63025;55.472;38.432;2024-01-27T11:45:21;100618.03;;;-0.27;100.00
74552;BME280;63025;55.472;38.432;2024-01-27T11:47:47;100615.50;;;-0.28;100.00
74552;BME280;63025;55.472;38.432;2024-01-27T11:50:13;100615.63;;;-0.30;100.00
74552;BME280;63025;55.472;38.432;2024-01-27T11:52:39;100614.53;;;-0.27;100.00
74552;BME280;63025;55.472;38.432;2024-01-27T11:55:05;100617.22;;;-0.39;100.00
74552;BME280;63025;55.472;38.432;2024-01-27T11:57:32;100621.66;;;-0.39;100.00
74552;BME280;63025;55.472;38.432;2024-01-27T11:59:58;100622.91;;;-0.43;100.00
74552;BME280;63025;55.472;38.432;2024-01-27T12:02:24;100625.78;;;-0.46;100.00
74552;BME280;63025;55.472;38.432;2024-01-27T12:04:50;100628.31;;;-0.45;100.00
74552;BME280;63025;55.472;38.432;2024-01-27T12:07:17;100632.84;;;-0.47;100.00
74552;BME280;63025;55.472;38.432;2024-01-27T12:09:49;100640.44;;;-0.53;100.00
74552;BME280;63025;55.472;38.432;2024-01-27T12:12:15;100643.94;;;-0.64;100.00
74552;BME280;63025;55.472;38.432;2024-01-27T12:14:45;100644.19;;;-0.67;100.00
74552;BME280;63025;55.472;38.432;2024-01-27T12:17:12;100651.75;;;-0.62;100.00
74552;BME280;63025;55.472;38.432;2024-01-27T12:19:39;100645.88;;;-0.66;100.00
74552;BME280;63025;55.472;38.432;2024-01-27T12:22:26;100646.72;;;-0.65;100.00
74552;BME280;63025;55.472;38.432;2024-01-27T12:24:53;100656.06;;;-0.73;100.00
74552;BME280;63025;55.472;38.432;2024-01-27T12:27:19;100655.47;;;-0.76;100.00
74552;BME280;63025;55.472;38.432;2024-01-27T12:29:49;100659.53;;;-0.72;100.00
74552;BME280;63025;55.472;38.432;2024-01-27T12:32:18;100668.56;;;-0.75;100.00
74552;BME280;63025;55.472;38.432;2024-01-27T12:34:45;100675.75;;;-0.77;100.00
74552;BME280;63025;55.472;38.432;2024-01-27T12:37:11;100674.31;;;-0.81;100.00